createdAt,value
2017-02-02T00:07:37.105Z,0
2017-02-02T00:17:50.502Z,0
2017-02-02T00:28:03.782Z,0
2017-02-02T00:38:17.641Z,0
2017-02-02T00:48:32.197Z,0
2017-02-02T00:58:46.594Z,0
2017-02-02T01:09:00.169Z,0
2017-02-02T01:19:13.483Z,0
2017-02-02T01:29:26.978Z,0
2017-02-02T01:39:40.115Z,0
2017-02-02T01:49:53.363Z,0
2017-02-02T02:00:08.372Z,0
2017-02-02T02:10:22.991Z,0
2017-02-02T02:20:37.426Z,0
2017-02-02T02:30:52.012Z,0
2017-02-02T02:41:05.755Z,0
2017-02-02T02:51:20.789Z,0
2017-02-02T03:01:35.041Z,0
2017-02-02T03:11:50.347Z,0
2017-02-02T03:22:03.466Z,0
2017-02-02T03:32:18.226Z,0
2017-02-02T03:42:32.383Z,0
2017-02-02T03:52:46.919Z,0
2017-02-02T04:03:01.017Z,0
2017-02-02T04:13:14.609Z,0
2017-02-02T04:23:27.788Z,0
2017-02-02T04:33:42.417Z,0
2017-02-02T04:43:56.858Z,0
2017-02-02T04:54:11.203Z,0
2017-02-02T05:04:25.505Z,0
2017-02-02T05:14:38.997Z,0
2017-02-02T05:24:53.859Z,0
2017-02-02T05:35:08.232Z,0
2017-02-02T05:45:21.560Z,0
2017-02-02T05:55:36.184Z,0
2017-02-02T06:05:50.782Z,0
2017-02-02T06:16:04.605Z,0
2017-02-02T06:26:18.405Z,0
2017-02-02T06:36:32.520Z,0
2017-02-02T06:46:45.669Z,0
2017-02-02T06:56:59.523Z,0
2017-02-02T07:07:12.689Z,15
2017-02-02T07:17:27.019Z,30
2017-02-02T07:27:40.623Z,45
2017-02-02T07:37:54.064Z,65
2017-02-02T07:48:08.919Z,95
2017-02-02T07:58:23.489Z,120
2017-02-02T08:08:37.023Z,115
2017-02-02T08:18:50.645Z,155
2017-02-02T08:29:05.039Z,150
2017-02-02T08:39:19.238Z,165
2017-02-02T08:49:33.099Z,255
2017-02-02T08:59:48.214Z,360
2017-02-02T09:10:02.184Z,410
2017-02-02T09:20:16.674Z,420
2017-02-02T09:30:30.054Z,465
2017-02-02T09:40:43.223Z,560
2017-02-02T09:50:58.240Z,570
2017-02-02T10:01:12.942Z,755
2017-02-02T10:11:26.569Z,575
2017-02-02T10:21:40.453Z,700
2017-02-02T10:31:55.010Z,675
2017-02-02T10:42:10.355Z,705
2017-02-02T10:52:23.588Z,730
2017-02-02T11:02:37.701Z,805
2017-02-02T11:12:52.754Z,825
2017-02-02T11:23:07.518Z,785
2017-02-02T11:33:21.305Z,865
2017-02-02T11:43:35.146Z,895
2017-02-02T11:53:48.403Z,745
2017-02-02T12:04:01.971Z,750
2017-02-02T12:14:16.321Z,815
2017-02-02T12:24:31.504Z,785
2017-02-02T12:34:46.277Z,750
2017-02-02T12:45:00.725Z,735
2017-02-02T12:55:14.377Z,700
2017-02-02T13:05:28.553Z,735
2017-02-02T13:15:43.253Z,690
2017-02-02T13:25:56.931Z,705
2017-02-02T13:36:11.275Z,570
2017-02-02T13:46:26.421Z,490
2017-02-02T13:56:39.828Z,325
2017-02-02T14:06:53.316Z,270
2017-02-02T14:17:07.734Z,245
2017-02-02T14:27:22.439Z,205
2017-02-02T14:37:36.287Z,180
2017-02-02T14:47:49.537Z,170
2017-02-02T14:58:03.799Z,155
2017-02-02T15:08:18.289Z,130
2017-02-02T15:18:32.150Z,110
2017-02-02T15:28:45.831Z,85
2017-02-02T15:38:59.097Z,65
2017-02-02T15:49:14.081Z,45
2017-02-02T15:59:27.471Z,30
2017-02-02T16:09:41.021Z,20
2017-02-02T16:19:55.468Z,10
2017-02-02T16:30:09.155Z,0
2017-02-02T16:40:23.190Z,0
2017-02-02T16:50:36.869Z,0
2017-02-02T17:00:51.937Z,0
2017-02-02T17:11:05.655Z,0
2017-02-02T17:21:19.784Z,0
2017-02-02T17:31:33.218Z,0
2017-02-02T17:41:46.439Z,0
2017-02-02T17:52:00.254Z,0
2017-02-02T18:02:15.677Z,0
2017-02-02T18:12:29.421Z,0
2017-02-02T18:22:43.133Z,0
2017-02-02T18:32:57.543Z,0
2017-02-02T18:43:12.167Z,0
2017-02-02T18:53:26.478Z,0
2017-02-02T19:03:40.814Z,0
2017-02-02T19:13:54.290Z,0
2017-02-02T19:24:08.341Z,0
2017-02-02T19:34:22.276Z,0
2017-02-02T19:44:37.009Z,0
2017-02-02T19:54:51.015Z,0
2017-02-02T20:05:04.962Z,0
2017-02-02T20:15:19.323Z,0
2017-02-02T20:25:33.952Z,0
2017-02-02T20:35:48.288Z,0
2017-02-02T20:46:02.381Z,0
2017-02-02T20:56:15.816Z,0
2017-02-02T21:06:29.182Z,0
2017-02-02T21:16:44.772Z,0
2017-02-02T21:26:57.535Z,0
2017-02-02T21:37:11.264Z,0
2017-02-02T21:47:24.706Z,0
2017-02-02T21:57:37.782Z,0
2017-02-02T22:07:51.856Z,0
2017-02-02T22:18:05.926Z,0
2017-02-02T22:28:20.855Z,0
2017-02-02T22:38:35.656Z,0
2017-02-02T22:48:49.767Z,0
2017-02-02T22:59:04.408Z,0
2017-02-02T23:09:17.903Z,0
2017-02-02T23:19:30.987Z,0
2017-02-02T23:29:46.121Z,0
2017-02-02T23:39:59.503Z,0
2017-02-02T23:50:12.587Z,0
